sensor_id;sensor_type;location;lat;lon;timestamp;pressure;altitude;pressure_sealevel;temperature;humidity
49801;BME280;35698;50.232;30.540;2023-02-22T00:00:46;99578.75;;;2.23;100.00
49801;BME280;35698;50.232;30.540;2023-02-22T00:01:49;99583.65;;;2.33;100.00
49801;BME280;35698;50.232;30.540;2023-02-22T00:03:00;99582.91;;;2.29;100.00
49801;BME280;35698;50.232;30.540;2023-02-22T00:04:05;99587.47;;;2.22;100.00
49801;BME280;35698;50.232;30.540;2023-02-22T00:05:08;99586.16;;;2.36;100.00
49801;BME280;35698;50.232;30.540;2023-02-22T00:06:30;99583.59;;;2.34;100.00
49801;BME280;35698;50.232;30.540;2023-02-22T00:07:42;99581.63;;;2.41;100.00
49801;BME280;35698;50.232;30.540;2023-02-22T00:08:47;99581.89;;;2.33;100.00
49801;BME280;35698;50.232;30.540;2023-02-22T00:09:50;99596.73;;;2.31;100.00
49801;BME280;35698;50.232;30.540;2023-02-22T00:11:12;99587.05;;;2.35;100.00
49801;BME280;35698;50.232;30.540;2023-02-22T00:12:23;99595.15;;;2.52;100.00
49801;BME280;35698;50.232;30.540;2023-02-22T00:18:21;99590.58;;;2.58;100.00
49801;BME280;35698;50.232;30.540;2023-02-22T00:19:24;99600.26;;;2.55;100.00
49801;BME280;35698;50.232;30.540;2023-02-22T00:20:28;99603.13;;;2.47;100.00
49801;BME280;35698;50.232;30.540;2023-02-22T00:21:39;99604.37;;;2.60;100.00
49801;BME280;35698;50.232;30.540;2023-02-22T00:22:43;99602.33;;;2.45;100.00
49801;BME280;35698;50.232;30.540;2023-02-22T00:23:55;99606.33;;;2.55;100.00
49801;BME280;35698;50.232;30.540;2023-02-22T00:24:58;99610.72;;;2.28;100.00
49801;BME280;35698;50.232;30.540;2023-02-22T00:26:10;99605.79;;;2.46;100.00
49801;BME280;35698;50.232;30.540;2023-02-22T00:27:14;99612.06;;;2.40;100.00
49801;BME280;35698;50.232;30.540;2023-02-22T00:28:25;99617.41;;;2.60;100.00
49801;BME280;35698;50.232;30.540;2023-02-22T00:29:29;99621.38;;;2.47;100.00
49801;BME280;35698;50.232;30.540;2023-02-22T00:30:35;99619.20;;;2.60;100.00
49801;BME280;35698;50.232;30.540;2023-02-22T00:31:39;99619.81;;;2.67;100.00
49801;BME280;35698;50.232;30.540;2023-02-22T00:32:50;99624.38;;;2.85;100.00
49801;BME280;35698;50.232;30.540;2023-02-22T00:33:53;99629.70;;;2.82;100.00
49801;BME280;35698;50.232;30.540;2023-02-22T00:34:57;99628.64;;;2.87;100.00
49801;BME280;35698;50.232;30.540;2023-02-22T00:36:00;99631.08;;;2.92;100.00
49801;BME280;35698;50.232;30.540;2023-02-22T00:37:11;99627.02;;;3.08;100.00
49801;BME280;35698;50.232;30.540;2023-02-22T00:38:17;99642.42;;;2.91;100.00
49801;BME280;35698;50.232;30.540;2023-02-22T00:39:21;99641.30;;;2.98;100.00
49801;BME280;35698;50.232;30.540;2023-02-22T00:40:31;99642.16;;;2.99;100.00
49801;BME280;35698;50.232;30.540;2023-02-22T00:41:42;99647.16;;;3.05;100.00
49801;BME280;35698;50.232;30.540;2023-02-22T00:42:46;99638.97;;;2.90;100.00
49801;BME280;35698;50.232;30.540;2023-02-22T00:44:00;99645.39;;;3.05;100.00
49801;BME280;35698;50.232;30.540;2023-02-22T00:45:04;99647.80;;;2.86;100.00
49801;BME280;35698;50.232;30.540;2023-02-22T00:46:16;99645.78;;;2.94;100.00
49801;BME280;35698;50.232;30.540;2023-02-22T00:47:19;99656.91;;;2.75;100.00
49801;BME280;35698;50.232;30.540;2023-02-22T00:48:22;99651.26;;;2.62;100.00
49801;BME280;35698;50.232;30.540;2023-02-22T00:49:34;99657.55;;;2.81;100.00
49801;BME280;35698;50.232;30.540;2023-02-22T00:50:37;99662.07;;;2.76;100.00
49801;BME280;35698;50.232;30.540;2023-02-22T00:51:48;99661.48;;;2.93;100.00
49801;BME280;35698;50.232;30.540;2023-02-22T00:52:52;99665.16;;;2.87;100.00
49801;BME280;35698;50.232;30.540;2023-02-22T00:54:03;99666.22;;;3.07;100.00
49801;BME280;35698;50.232;30.540;2023-02-22T00:55:08;99674.48;;;2.94;100.00
49801;BME280;35698;50.232;30.540;2023-02-22T00:56:13;99665.00;;;2.92;100.00
49801;BME280;35698;50.232;30.540;2023-02-22T00:57:24;99676.70;;;3.05;100.00
49801;BME280;35698;50.232;30.540;2023-02-22T00:58:28;99676.45;;;2.88;100.00
49801;BME280;35698;50.232;30.540;2023-02-22T00:59:31;99681.13;;;2.78;100.00
49801;BME280;35698;50.232;30.540;2023-02-22T01:00:38;99673.52;;;2.72;100.00
49801;BME280;35698;50.232;30.540;2023-02-22T01:01:50;99677.98;;;2.69;100.00
49801;BME280;35698;50.232;30.540;2023-02-22T01:02:53;99687.25;;;2.52;100.00
49801;BME280;35698;50.232;30.540;2023-02-22T01:04:04;99678.94;;;2.66;100.00
49801;BME280;35698;50.232;30.540;2023-02-22T01:05:11;99690.66;;;2.54;100.00
49801;BME280;35698;50.232;30.540;2023-02-22T01:06:32;99686.45;;;2.50;100.00
49801;BME280;35698;50.232;30.540;2023-02-22T01:07:44;99695.33;;;2.45;100.00
49801;BME280;35698;50.232;30.540;2023-02-22T01:08:48;99691.31;;;2.35;100.00
49801;BME280;35698;50.232;30.540;2023-02-22T01:10:10;99691.06;;;2.42;100.00
49801;BME280;35698;50.232;30.540;2023-02-22T01:11:15;99698.89;;;2.42;100.00
49801;BME280;35698;50.232;30.540;2023-02-22T01:12:27;99695.13;;;2.51;100.00
49801;BME280;35698;50.232;30.540;2023-02-22T01:13:31;99692.27;;;2.32;100.00
49801;BME280;35698;50.232;30.540;2023-02-22T01:14:53;99707.70;;;2.38;100.00
49801;BME280;35698;50.232;30.540;2023-02-22T01:15:56;99705.83;;;2.15;100.00
49801;BME280;35698;50.232;30.540;2023-02-22T01:17:07;99701.23;;;2.23;100.00
49801;BME280;35698;50.232;30.540;2023-02-22T01:18:11;99706.48;;;2.22;100.00
49801;BME280;35698;50.232;30.540;2023-02-22T01:19:32;99706.88;;;2.10;100.00
49801;BME280;35698;50.232;30.540;2023-02-22T01:20:36;99709.19;;;2.19;100.00
49801;BME280;35698;50.232;30.540;2023-02-22T01:21:39;99706.25;;;2.29;100.00
49801;BME280;35698;50.232;30.540;2023-02-22T01:22:52;99704.09;;;2.42;100.00
49801;BME280;35698;50.232;30.540;2023-02-22T01:23:55;99707.80;;;2.35;100.00
49801;BME280;35698;50.232;30.540;2023-02-22T01:25:19;99709.46;;;2.38;100.00
49801;BME280;35698;50.232;30.540;2023-02-22T01:26:22;99708.36;;;2.45;100.00
49801;BME280;35698;50.232;30.540;2023-02-22T01:27:34;99719.39;;;2.53;100.00
49801;BME280;35698;50.232;30.540;2023-02-22T01:28:38;99716.48;;;2.36;100.00
49801;BME280;35698;50.232;30.540;2023-02-22T01:29:59;99714.02;;;2.31;100.00
49801;BME280;35698;50.232;30.540;2023-02-22T01:31:10;99717.08;;;2.44;100.00
49801;BME280;35698;50.232;30.540;2023-02-22T01:32:13;99717.33;;;2.36;100.00
49801;BME280;35698;50.232;30.540;2023-02-22T01:33:34;99722.39;;;2.41;100.00
49801;BME280;35698;50.232;30.540;2023-02-22T01:34:48;99723.75;;;2.52;100.00
49801;BME280;35698;50.232;30.540;2023-02-22T01:35:51;99731.02;;;2.43;100.00
49801;BME280;35698;50.232;30.540;2023-02-22T01:36:54;99730.27;;;2.39;100.00
49801;BME280;35698;50.232;30.540;2023-02-22T01:38:05;99732.38;;;2.54;100.00
49801;BME280;35698;50.232;30.540;2023-02-22T01:39:09;99741.40;;;2.44;100.00
49801;BME280;35698;50.232;30.540;2023-02-22T01:40:30;99739.55;;;2.48;100.00
49801;BME280;35698;50.232;30.540;2023-02-22T01:41:33;99743.81;;;2.50;100.00
49801;BME280;35698;50.232;30.540;2023-02-22T01:42:57;99738.87;;;2.68;100.00
49801;BME280;35698;50.232;30.540;2023-02-22T01:44:18;99747.74;;;2.62;100.00
49801;BME280;35698;50.232;30.540;2023-02-22T01:46:36;99738.11;;;2.64;100.00
49801;BME280;35698;50.232;30.540;2023-02-22T01:47:47;99756.72;;;2.80;100.00
49801;BME280;35698;50.232;30.540;2023-02-22T01:49:02;99755.36;;;2.68;100.00
49801;BME280;35698;50.232;30.540;2023-02-22T01:50:13;99760.13;;;2.82;100.00
49801;BME280;35698;50.232;30.540;2023-02-22T01:51:19;99760.48;;;2.71;100.00
49801;BME280;35698;50.232;30.540;2023-02-22T01:52:31;99760.94;;;2.84;100.00
49801;BME280;35698;50.232;30.540;2023-02-22T01:53:37;99764.69;;;2.75;100.00
49801;BME280;35698;50.232;30.540;2023-02-22T02:01:38;99774.17;;;2.78;100.00
49801;BME280;35698;50.232;30.540;2023-02-22T02:02:44;99778.31;;;2.58;100.00
49801;BME280;35698;50.232;30.540;2023-02-22T02:03:57;99771.44;;;2.56;100.00
49801;BME280;35698;50.232;30.540;2023-02-22T02:05:01;99787.98;;;2.55;100.00
49801;BME280;35698;50.232;30.540;2023-02-22T02:06:14;99791.45;;;2.55;100.00
49801;BME280;35698;50.232;30.540;2023-02-22T02:07:19;99799.98;;;2.33;100.00
49801;BME280;35698;50.232;30.540;2023-02-22T02:08:43;99788.03;;;2.25;100.00
49801;BME280;35698;50.232;30.540;2023-02-22T02:12:35;99796.22;;;2.13;100.00
49801;BME280;35698;50.232;30.540;2023-02-22T02:15:30;99805.16;;;2.05;100.00
49801;BME280;35698;50.232;30.540;2023-02-22T02:16:47;99808.44;;;2.11;100.00
49801;BME280;35698;50.232;30.540;2023-02-22T02:18:04;99811.53;;;2.24;100.00
49801;BME280;35698;50.232;30.540;2023-02-22T02:29:44;99830.45;;;2.01;100.00
49801;BME280;35698;50.232;30.540;2023-02-22T02:41:32;99851.42;;;1.96;100.00
49801;BME280;35698;50.232;30.540;2023-02-22T02:42:55;99849.08;;;1.87;100.00
49801;BME280;35698;50.232;30.540;2023-02-22T02:44:32;99850.78;;;1.88;100.00
49801;BME280;35698;50.232;30.540;2023-02-22T02:45:39;99861.01;;;1.65;100.00
49801;BME280;35698;50.232;30.540;2023-02-22T02:46:59;99865.04;;;1.75;100.00
49801;BME280;35698;50.232;30.540;2023-02-22T02:48:22;99858.48;;;1.62;100.00
49801;BME280;35698;50.232;30.540;2023-02-22T02:49:36;99864.58;;;1.92;100.00
49801;BME280;35698;50.232;30.540;2023-02-22T02:50:48;99870.68;;;1.91;100.00
49801;BME280;35698;50.232;30.540;2023-02-22T02:52:11;99867.18;;;1.92;100.00
49801;BME280;35698;50.232;30.540;2023-02-22T02:53:26;99865.67;;;2.14;100.00
49801;BME280;35698;50.232;30.540;2023-02-22T02:54:30;99883.28;;;2.06;100.00
49801;BME280;35698;50.232;30.540;2023-02-22T02:55:54;99881.10;;;1.91;100.00
49801;BME280;35698;50.232;30.540;2023-02-22T02:57:01;99888.44;;;1.77;100.00
49801;BME280;35698;50.232;30.540;2023-02-22T02:58:19;99878.33;;;1.97;100.00
49801;BME280;35698;50.232;30.540;2023-02-22T02:59:28;99890.70;;;1.58;100.00
49801;BME280;35698;50.232;30.540;2023-02-22T03:00:52;99892.33;;;1.62;100.00
49801;BME280;35698;50.232;30.540;2023-02-22T03:02:09;99883.14;;;1.80;100.00
49801;BME280;35698;50.232;30.540;2023-02-22T03:03:22;99897.02;;;1.80;100.00
49801;BME280;35698;50.232;30.540;2023-02-22T03:04:49;99891.77;;;1.82;100.00
49801;BME280;35698;50.232;30.540;2023-02-22T03:09:03;99902.75;;;1.93;100.00
49801;BME280;35698;50.232;30.540;2023-02-22T03:10:48;99907.88;;;1.96;100.00
49801;BME280;35698;50.232;30.540;2023-02-22T03:21:08;99923.10;;;1.79;100.00
49801;BME280;35698;50.232;30.540;2023-02-22T03:22:19;99937.80;;;1.81;100.00
49801;BME280;35698;50.232;30.540;2023-02-22T03:23:50;99936.75;;;1.56;100.00
49801;BME280;35698;50.232;30.540;2023-02-22T03:25:11;99930.64;;;1.57;100.00
49801;BME280;35698;50.232;30.540;2023-02-22T03:45:46;99945.38;;;1.58;100.00
49801;BME280;35698;50.232;30.540;2023-02-22T03:47:01;99963.34;;;1.33;100.00
49801;BME280;35698;50.232;30.540;2023-02-22T03:48:10;99959.28;;;1.21;100.00
49801;BME280;35698;50.232;30.540;2023-02-22T03:50:42;99968.62;;;1.30;100.00
49801;BME280;35698;50.232;30.540;2023-02-22T03:51:54;99971.03;;;1.38;100.00
49801;BME280;35698;50.232;30.540;2023-02-22T03:52:57;99969.76;;;1.18;100.00
49801;BME280;35698;50.232;30.540;2023-02-22T03:54:09;99970.89;;;1.44;100.00
49801;BME280;35698;50.232;30.540;2023-02-22T03:55:14;99979.88;;;1.30;100.00
49801;BME280;35698;50.232;30.540;2023-02-22T03:56:27;99975.46;;;1.34;100.00
49801;BME280;35698;50.232;30.540;2023-02-22T03:57:50;99983.30;;;1.33;100.00
49801;BME280;35698;50.232;30.540;2023-02-22T03:58:54;99979.31;;;1.18;100.00
49801;BME280;35698;50.232;30.540;2023-02-22T03:59:58;99981.52;;;1.35;100.00
49801;BME280;35698;50.232;30.540;2023-02-22T04:01:02;99982.97;;;1.46;100.00
49801;BME280;35698;50.232;30.540;2023-02-22T04:02:13;99988.70;;;1.60;100.00
49801;BME280;35698;50.232;30.540;2023-02-22T04:03:18;99983.72;;;1.51;100.00
49801;BME280;35698;50.232;30.540;2023-02-22T04:04:23;99988.85;;;1.54;100.00
49801;BME280;35698;50.232;30.540;2023-02-22T04:05:27;99986.06;;;1.62;100.00
49801;BME280;35698;50.232;30.540;2023-02-22T04:06:30;99987.06;;;1.56;100.00
49801;BME280;35698;50.232;30.540;2023-02-22T04:07:42;99982.41;;;1.69;100.00
49801;BME280;35698;50.232;30.540;2023-02-22T04:08:45;99988.52;;;1.68;100.00
49801;BME280;35698;50.232;30.540;2023-02-22T04:09:48;99990.19;;;1.71;100.00
49801;BME280;35698;50.232;30.540;2023-02-22T04:10:52;99985.72;;;1.74;99.40
49801;BME280;35698;50.232;30.540;2023-02-22T04:11:55;99993.64;;;1.71;99.52
49801;BME280;35698;50.232;30.540;2023-02-22T04:13:06;100005.23;;;1.92;100.00
49801;BME280;35698;50.232;30.540;2023-02-22T04:14:10;99996.69;;;1.87;100.00
49801;BME280;35698;50.232;30.540;2023-02-22T04:15:16;99999.17;;;1.91;100.00
49801;BME280;35698;50.232;30.540;2023-02-22T04:16:20;99998.39;;;1.88;97.47
49801;BME280;35698;50.232;30.540;2023-02-22T04:17:31;100001.34;;;1.74;89.75
49801;BME280;35698;50.232;30.540;2023-02-22T04:18:35;100002.20;;;1.75;91.14
49801;BME280;35698;50.232;30.540;2023-02-22T04:19:38;99998.47;;;1.85;95.54
49801;BME280;35698;50.232;30.540;2023-02-22T04:20:42;100001.68;;;1.62;87.37
49801;BME280;35698;50.232;30.540;2023-02-22T04:21:45;100005.03;;;1.67;89.38
49801;BME280;35698;50.232;30.540;2023-02-22T04:22:48;100010.31;;;1.64;86.89
49801;BME280;35698;50.232;30.540;2023-02-22T04:24:00;100010.64;;;1.84;90.13
49801;BME280;35698;50.232;30.540;2023-02-22T04:25:03;100015.14;;;1.78;91.79
49801;BME280;35698;50.232;30.540;2023-02-22T04:26:15;100020.16;;;1.85;89.15
49801;BME280;35698;50.232;30.540;2023-02-22T04:27:18;100017.79;;;1.76;92.08
49801;BME280;35698;50.232;30.540;2023-02-22T04:28:40;100020.36;;;1.78;91.22
49801;BME280;35698;50.232;30.540;2023-02-22T04:29:43;100025.78;;;1.70;87.26
49801;BME280;35698;50.232;30.540;2023-02-22T04:30:54;100031.81;;;1.72;87.77
49801;BME280;35698;50.232;30.540;2023-02-22T04:31:58;100039.84;;;1.63;90.58
49801;BME280;35698;50.232;30.540;2023-02-22T04:33:19;100036.75;;;1.47;88.50
49801;BME280;35698;50.232;30.540;2023-02-22T04:34:30;100038.98;;;1.62;89.25
49801;BME280;35698;50.232;30.540;2023-02-22T04:35:34;100037.53;;;1.51;91.70
49801;BME280;35698;50.232;30.540;2023-02-22T04:36:55;100038.49;;;1.47;90.08
49801;BME280;35698;50.232;30.540;2023-02-22T04:38:09;100045.94;;;1.62;95.42
49801;BME280;35698;50.232;30.540;2023-02-22T04:39:13;100046.52;;;1.38;92.40
49801;BME280;35698;50.232;30.540;2023-02-22T04:40:34;100049.52;;;1.58;99.54
49801;BME280;35698;50.232;30.540;2023-02-22T04:41:46;100051.97;;;1.64;95.34
49801;BME280;35698;50.232;30.540;2023-02-22T04:42:49;100057.85;;;1.72;100.00
49801;BME280;35698;50.232;30.540;2023-02-22T04:44:10;100054.28;;;1.75;98.65
49801;BME280;35698;50.232;30.540;2023-02-22T04:45:21;100060.98;;;1.85;96.33
49801;BME280;35698;50.232;30.540;2023-02-22T04:46:25;100058.42;;;1.83;100.00
49801;BME280;35698;50.232;30.540;2023-02-22T04:47:47;100058.23;;;1.91;100.00
49801;BME280;35698;50.232;30.540;2023-02-22T04:49:08;100058.15;;;1.94;100.00
49801;BME280;35698;50.232;30.540;2023-02-22T04:50:22;100052.44;;;2.14;100.00
49801;BME280;35698;50.232;30.540;2023-02-22T04:51:26;100057.80;;;2.08;100.00
49801;BME280;35698;50.232;30.540;2023-02-22T04:52:48;100057.69;;;2.12;100.00
49801;BME280;35698;50.232;30.540;2023-02-22T04:54:09;100059.63;;;2.04;100.00
49801;BME280;35698;50.232;30.540;2023-02-22T04:55:20;100060.91;;;2.22;100.00
49801;BME280;35698;50.232;30.540;2023-02-22T04:56:24;100071.73;;;2.07;100.00
49801;BME280;35698;50.232;30.540;2023-02-22T04:57:28;100072.00;;;1.96;100.00
49801;BME280;35698;50.232;30.540;2023-02-22T04:58:50;100073.55;;;2.03;100.00
49801;BME280;35698;50.232;30.540;2023-02-22T05:00:02;100084.56;;;2.14;100.00
49801;BME280;35698;50.232;30.540;2023-02-22T05:01:06;100079.62;;;2.04;100.00
49801;BME280;35698;50.232;30.540;2023-02-22T05:02:17;100085.42;;;2.15;100.00
49801;BME280;35698;50.232;30.540;2023-02-22T05:03:21;100085.69;;;2.04;100.00
49801;BME280;35698;50.232;30.540;2023-02-22T05:04:24;100082.97;;;2.09;100.00
49801;BME280;35698;50.232;30.540;2023-02-22T05:05:45;100088.95;;;2.12;100.00
49801;BME280;35698;50.232;30.540;2023-02-22T05:06:49;100087.98;;;2.16;100.00
49801;BME280;35698;50.232;30.540;2023-02-22T05:08:00;100085.03;;;2.30;100.00
49801;BME280;35698;50.232;30.540;2023-02-22T05:09:03;100074.09;;;2.16;100.00
49801;BME280;35698;50.232;30.540;2023-02-22T05:10:08;100092.15;;;2.23;100.00
49801;BME280;35698;50.232;30.540;2023-02-22T05:11:30;100094.72;;;2.25;100.00
49801;BME280;35698;50.232;30.540;2023-02-22T05:12:34;100099.11;;;2.23;100.00
49801;BME280;35698;50.232;30.540;2023-02-22T05:13:45;100104.87;;;2.36;100.00
49801;BME280;35698;50.232;30.540;2023-02-22T05:14:48;100113.00;;;2.23;100.00
49801;BME280;35698;50.232;30.540;2023-02-22T05:15:51;100107.16;;;2.14;100.00
49801;BME280;35698;50.232;30.540;2023-02-22T05:16:58;100113.56;;;2.01;96.75
49801;BME280;35698;50.232;30.540;2023-02-22T05:18:10;100113.27;;;2.13;100.00
49801;BME280;35698;50.232;30.540;2023-02-22T05:19:13;100126.59;;;2.01;100.00
49801;BME280;35698;50.232;30.540;2023-02-22T05:21:34;100130.12;;;1.98;92.20
49801;BME280;35698;50.232;30.540;2023-02-22T05:22:38;100122.78;;;1.78;93.80
49801;BME280;35698;50.232;30.540;2023-02-22T05:23:41;100124.95;;;1.61;94.49
49801;BME280;35698;50.232;30.540;2023-02-22T05:24:44;100126.59;;;1.65;94.15
49801;BME280;35698;50.232;30.540;2023-02-22T05:25:55;100125.08;;;1.55;91.86
49801;BME280;35698;50.232;30.540;2023-02-22T05:26:59;100133.48;;;1.27;96.12
49801;BME280;35698;50.232;30.540;2023-02-22T05:28:13;100131.94;;;1.59;100.00
49801;BME280;35698;50.232;30.540;2023-02-22T05:29:17;100134.57;;;1.57;100.00
49801;BME280;35698;50.232;30.540;2023-02-22T05:30:28;100137.92;;;1.62;100.00
49801;BME280;35698;50.232;30.540;2023-02-22T05:31:38;100147.97;;;1.78;98.17
49801;BME280;35698;50.232;30.540;2023-02-22T05:32:42;100145.50;;;1.73;99.70
49801;BME280;35698;50.232;30.540;2023-02-22T05:33:53;100149.40;;;1.91;99.08
49801;BME280;35698;50.232;30.540;2023-02-22T05:34:56;100151.29;;;1.84;98.69
49801;BME280;35698;50.232;30.540;2023-02-22T05:35:59;100152.08;;;1.88;100.00
49801;BME280;35698;50.232;30.540;2023-02-22T05:37:11;100162.03;;;2.08;100.00
49801;BME280;35698;50.232;30.540;2023-02-22T05:38:15;100156.97;;;2.02;100.00
49801;BME280;35698;50.232;30.540;2023-02-22T05:39:18;100157.67;;;2.08;100.00
49801;BME280;35698;50.232;30.540;2023-02-22T05:40:30;100163.27;;;2.28;100.00
49801;BME280;35698;50.232;30.540;2023-02-22T05:41:33;100166.88;;;2.23;100.00
49801;BME280;35698;50.232;30.540;2023-02-22T05:42:37;100172.02;;;2.26;100.00
49801;BME280;35698;50.232;30.540;2023-02-22T05:43:41;100163.34;;;2.25;100.00
49801;BME280;35698;50.232;30.540;2023-02-22T05:44:52;100162.18;;;2.37;100.00
49801;BME280;35698;50.232;30.540;2023-02-22T05:45:55;100171.05;;;2.30;100.00
49801;BME280;35698;50.232;30.540;2023-02-22T05:46:58;100167.47;;;2.34;100.00
49801;BME280;35698;50.232;30.540;2023-02-22T05:48:09;100175.61;;;2.56;100.00
49801;BME280;35698;50.232;30.540;2023-02-22T05:49:13;100172.34;;;2.48;100.00
49801;BME280;35698;50.232;30.540;2023-02-22T05:50:17;100182.66;;;2.52;100.00
49801;BME280;35698;50.232;30.540;2023-02-22T05:51:21;100182.53;;;2.57;100.00
49801;BME280;35698;50.232;30.540;2023-02-22T05:52:32;100183.98;;;2.67;97.47
49801;BME280;35698;50.232;30.540;2023-02-22T05:53:35;100185.11;;;2.58;97.61
49801;BME280;35698;50.232;30.540;2023-02-22T05:54:39;100186.90;;;2.56;97.31
49801;BME280;35698;50.232;30.540;2023-02-22T05:55:50;100196.01;;;2.73;100.00
49801;BME280;35698;50.232;30.540;2023-02-22T05:56:54;100195.34;;;2.64;100.00
49801;BME280;35698;50.232;30.540;2023-02-22T05:58:06;100189.04;;;2.73;98.27
49801;BME280;35698;50.232;30.540;2023-02-22T05:59:09;100194.49;;;2.64;99.63
49801;BME280;35698;50.232;30.540;2023-02-22T06:00:27;100198.70;;;2.70;98.85
49801;BME280;35698;50.232;30.540;2023-02-22T06:01:31;100203.40;;;2.57;99.64
49801;BME280;35698;50.232;30.540;2023-02-22T06:03:04;100199.94;;;2.56;100.00
49801;BME280;35698;50.232;30.540;2023-02-22T06:04:11;100202.63;;;2.53;100.00
49801;BME280;35698;50.232;30.540;2023-02-22T06:05:22;100210.33;;;2.58;100.00
49801;BME280;35698;50.232;30.540;2023-02-22T06:06:26;100202.96;;;2.40;100.00
49801;BME280;35698;50.232;30.540;2023-02-22T06:07:47;100205.72;;;2.34;100.00
49801;BME280;35698;50.232;30.540;2023-02-22T06:08:51;100210.36;;;2.21;100.00
49801;BME280;35698;50.232;30.540;2023-02-22T06:10:13;100208.72;;;2.17;100.00
49801;BME280;35698;50.232;30.540;2023-02-22T06:11:24;100210.92;;;2.34;100.00
49801;BME280;35698;50.232;30.540;2023-02-22T06:12:28;100208.58;;;2.23;100.00
49801;BME280;35698;50.232;30.540;2023-02-22T06:13:50;100205.89;;;2.26;100.00
49801;BME280;35698;50.232;30.540;2023-02-22T06:14:54;100213.57;;;2.32;100.00
49801;BME280;35698;50.232;30.540;2023-02-22T06:16:16;100217.81;;;2.36;100.00
49801;BME280;35698;50.232;30.540;2023-02-22T06:17:27;100209.66;;;2.50;100.00
49801;BME280;35698;50.232;30.540;2023-02-22T06:18:31;100215.14;;;2.39;100.00
49801;BME280;35698;50.232;30.540;2023-02-22T06:19:52;100222.88;;;2.42;100.00
49801;BME280;35698;50.232;30.540;2023-02-22T06:20:57;100220.31;;;2.41;100.00
49801;BME280;35698;50.232;30.540;2023-02-22T06:22:19;100225.64;;;2.36;100.00
49801;BME280;35698;50.232;30.540;2023-02-22T06:23:30;100221.99;;;2.43;100.00
49801;BME280;35698;50.232;30.540;2023-02-22T06:24:33;100228.17;;;2.39;100.00
49801;BME280;35698;50.232;30.540;2023-02-22T06:25:57;100235.84;;;2.45;100.00
49801;BME280;35698;50.232;30.540;2023-02-22T06:27:08;100234.55;;;2.61;100.00
49801;BME280;35698;50.232;30.540;2023-02-22T06:28:11;100236.59;;;2.50;100.00
49801;BME280;35698;50.232;30.540;2023-02-22T06:29:33;100242.62;;;2.52;100.00
49801;BME280;35698;50.232;30.540;2023-02-22T06:30:44;100248.33;;;2.67;100.00
49801;BME280;35698;50.232;30.540;2023-02-22T06:32:07;100239.77;;;2.61;100.00
49801;BME280;35698;50.232;30.540;2023-02-22T06:33:11;100242.38;;;2.61;100.00
49801;BME280;35698;50.232;30.540;2023-02-22T06:34:14;100237.16;;;2.61;100.00
49801;BME280;35698;50.232;30.540;2023-02-22T06:35:18;100241.52;;;2.61;100.00
49801;BME280;35698;50.232;30.540;2023-02-22T06:36:23;100243.27;;;2.60;100.00
49801;BME280;35698;50.232;30.540;2023-02-22T06:37:35;100245.49;;;2.76;100.00
49801;BME280;35698;50.232;30.540;2023-02-22T06:38:39;100250.00;;;2.69;100.00
49801;BME280;35698;50.232;30.540;2023-02-22T06:39:42;100248.96;;;2.76;100.00
49801;BME280;35698;50.232;30.540;2023-02-22T06:40:56;100252.93;;;2.91;100.00
49801;BME280;35698;50.232;30.540;2023-02-22T06:42:00;100249.66;;;2.83;100.00
49801;BME280;35698;50.232;30.540;2023-02-22T06:43:11;100245.06;;;2.92;100.00
49801;BME280;35698;50.232;30.540;2023-02-22T06:45:28;100244.25;;;2.90;100.00
49801;BME280;35698;50.232;30.540;2023-02-22T06:48:01;100255.58;;;2.89;100.00
49801;BME280;35698;50.232;30.540;2023-02-22T06:49:05;100259.20;;;2.84;100.00
49801;BME280;35698;50.232;30.540;2023-02-22T06:50:27;100268.44;;;2.97;100.00
49801;BME280;35698;50.232;30.540;2023-02-22T06:51:35;100255.62;;;2.88;100.00
49801;BME280;35698;50.232;30.540;2023-02-22T06:52:46;100264.92;;;2.98;100.00
49801;BME280;35698;50.232;30.540;2023-02-22T06:53:50;100266.75;;;2.94;100.00
49801;BME280;35698;50.232;30.540;2023-02-22T06:54:53;100272.67;;;3.01;100.00
49801;BME280;35698;50.232;30.540;2023-02-22T06:56:15;100273.91;;;3.20;100.00
49801;BME280;35698;50.232;30.540;2023-02-22T06:57:18;100275.75;;;3.17;100.00
49801;BME280;35698;50.232;30.540;2023-02-22T06:58:22;100279.05;;;3.23;100.00
49801;BME280;35698;50.232;30.540;2023-02-22T06:59:26;100280.68;;;3.27;96.98
49801;BME280;35698;50.232;30.540;2023-02-22T07:00:37;100288.52;;;3.27;95.09
49801;BME280;35698;50.232;30.540;2023-02-22T07:01:41;100283.45;;;3.21;96.48
49801;BME280;35698;50.232;30.540;2023-02-22T07:02:54;100280.56;;;3.32;96.09
49801;BME280;35698;50.232;30.540;2023-02-22T07:04:06;100290.06;;;3.35;93.74
49801;BME280;35698;50.232;30.540;2023-02-22T07:05:11;100291.28;;;3.21;93.11
49801;BME280;35698;50.232;30.540;2023-02-22T07:06:32;100291.20;;;3.24;92.48
49801;BME280;35698;50.232;30.540;2023-02-22T07:07:36;100295.19;;;3.05;91.07
49801;BME280;35698;50.232;30.540;2023-02-22T07:08:48;100297.64;;;3.11;92.69
49801;BME280;35698;50.232;30.540;2023-02-22T07:09:51;100297.05;;;3.00;96.10
49801;BME280;35698;50.232;30.540;2023-02-22T07:11:03;100297.56;;;3.14;99.67
49801;BME280;35698;50.232;30.540;2023-02-22T07:12:07;100305.59;;;3.07;100.00
49801;BME280;35698;50.232;30.540;2023-02-22T07:13:29;100303.91;;;3.04;99.09
49801;BME280;35698;50.232;30.540;2023-02-22T07:14:33;100301.42;;;3.00;98.44
49801;BME280;35698;50.232;30.540;2023-02-22T07:15:44;100302.00;;;3.11;96.51
49801;BME280;35698;50.232;30.540;2023-02-22T07:22:29;100317.60;;;2.78;94.91
49801;BME280;35698;50.232;30.540;2023-02-22T07:23:40;100318.16;;;2.91;97.17
49801;BME280;35698;50.232;30.540;2023-02-22T07:24:44;100320.06;;;2.84;96.26